Time;durP1;ratioP1;P1;durP2;ratioP2;P2;SDS_P1;SDS_P2;PMS_P1;PMS_P2;Temp;Humidity;BMP_temperature;BMP_pressure;BME280_temperature;BME280_humidity;BME280_pressure;Samples;Min_cycle;Max_cycle;Signal;HPM_P1;HPM_P2
2023/05/05 00:01:31;;;;;;;7.23;3.07;;;;;;;8.14;nan;101431.13;5064121;28;20028;-81
2023/05/05 00:03:59;;;;;;;5.13;2.67;;;;;;;8.10;nan;101441.69;5035234;28;20037;-80
2023/05/05 00:06:27;;;;;;;8.67;3.40;;;;;;;7.96;nan;101438.13;5049408;28;20048;-82
2023/05/05 00:08:55;;;;;;;5.97;3.37;;;;;;;7.94;nan;101434.63;5052293;28;20036;-81
2023/05/05 00:11:22;;;;;;;5.57;3.00;;;;;;;8.00;nan;101440.78;5046589;28;20379;-82
2023/05/05 00:13:50;;;;;;;5.13;2.67;;;;;;;7.98;nan;101441.63;5040714;28;20039;-81
2023/05/05 00:16:17;;;;;;;4.67;2.50;;;;;;;8.01;nan;101441.66;5031066;28;20041;-82
2023/05/05 00:18:44;;;;;;;5.10;2.67;;;;;;;8.13;nan;101436.41;5035865;28;20044;-80
2023/05/05 00:21:10;;;;;;;6.67;3.10;;;;;;;7.94;nan;101432.88;5043572;28;20046;-80
2023/05/05 00:23:37;;;;;;;4.50;2.50;;;;;;;7.98;nan;101436.38;5041208;28;20050;-81
2023/05/05 00:26:05;;;;;;;4.50;2.80;;;;;;;7.90;nan;101433.72;5035639;28;20043;-82
2023/05/05 00:28:32;;;;;;;4.97;2.83;;;;;;;7.99;nan;101425.88;5035454;28;20062;-81
2023/05/05 00:30:59;;;;;;;3.40;2.50;;;;;;;7.94;nan;101427.59;5051885;28;20040;-81
2023/05/05 00:33:26;;;;;;;6.40;2.93;;;;;;;8.02;nan;101425.00;5043903;28;20507;-81
2023/05/05 00:35:53;;;;;;;5.50;2.80;;;;;;;7.92;nan;101423.22;5027690;28;20049;-80
2023/05/05 00:38:20;;;;;;;8.70;3.60;;;;;;;8.10;nan;101429.41;5057041;28;20044;-81
2023/05/05 00:40:47;;;;;;;7.17;3.20;;;;;;;8.07;nan;101426.78;5044450;28;20035;-81
2023/05/05 00:43:14;;;;;;;6.73;2.97;;;;;;;8.05;nan;101425.88;5046098;28;20047;-81
2023/05/05 00:45:43;;;;;;;6.27;3.07;;;;;;;8.10;nan;101433.78;5055065;28;20452;-81
2023/05/05 00:48:10;;;;;;;4.23;2.50;;;;;;;7.99;nan;101431.13;5043716;28;20036;-81
2023/05/05 00:50:37;;;;;;;6.53;2.83;;;;;;;8.04;nan;101432.00;5035832;28;20061;-81
2023/05/05 00:53:05;;;;;;;5.67;3.13;;;;;;;8.02;nan;101430.25;5037799;28;20044;-83
2023/05/05 00:55:33;;;;;;;6.47;3.17;;;;;;;8.09;nan;101425.00;5034775;28;20051;-82
2023/05/05 00:58:01;;;;;;;4.73;2.87;;;;;;;8.08;nan;101415.38;5040650;28;20498;-83
2023/05/05 01:00:29;;;;;;;5.23;2.80;;;;;;;8.09;nan;101416.25;5031556;28;20029;-83
2023/05/05 01:02:56;;;;;;;5.73;2.70;;;;;;;7.99;nan;101419.69;5021338;28;20044;-85
2023/05/05 01:05:25;;;;;;;4.97;2.53;;;;;;;8.18;nan;101413.63;5051782;28;20498;-82
2023/05/05 01:08:18;;;;;;;5.77;2.63;;;;;;;7.98;nan;101416.19;5041469;28;20051;-83
2023/05/05 01:10:52;;;;;;;4.70;2.87;;;;;;;8.06;nan;101414.47;5034112;28;20711;-82
2023/05/05 01:13:21;;;;;;;4.07;2.42;;;;;;;8.13;nan;101410.97;5042994;28;20046;-82
2023/05/05 01:15:55;;;;;;;4.77;3.10;;;;;;;8.06;nan;101410.94;5049007;28;20043;-86
2023/05/05 01:18:39;;;;;;;5.15;2.97;;;;;;;8.12;nan;101413.59;5034810;28;20051;-82
2023/05/05 01:21:15;;;;;;;5.57;2.95;;;;;;;8.14;nan;101411.84;5031289;28;20610;-80
2023/05/05 01:24:04;;;;;;;7.13;2.70;;;;;;;8.12;nan;101416.22;5050401;28;20032;-80
2023/05/05 01:26:58;;;;;;;3.97;2.77;;;;;;;7.92;nan;101404.81;5039446;28;20055;-80
2023/05/05 01:29:55;;;;;;;6.10;2.80;;;;;;;8.06;nan;101406.56;5020366;28;20780;-79
2023/05/05 01:32:25;;;;;;;7.93;2.80;;;;;;;8.15;nan;101409.19;5050773;28;20040;-80
2023/05/05 01:35:00;;;;;;;6.17;2.80;;;;;;;8.10;nan;101405.72;5043563;28;20047;-80
2023/05/05 01:37:31;;;;;;;6.53;3.23;;;;;;;8.02;nan;101399.56;5018161;28;20048;-80
2023/05/05 01:40:02;;;;;;;7.47;2.90;;;;;;;7.94;nan;101403.03;5045988;28;20055;-80
2023/05/05 01:42:29;;;;;;;6.17;3.50;;;;;;;7.96;nan;101402.16;5029525;28;20032;-80
2023/05/05 01:44:57;;;;;;;6.33;3.17;;;;;;;8.04;nan;101399.56;5031534;28;20595;-80
2023/05/05 01:47:25;;;;;;;6.83;2.57;;;;;;;8.15;nan;101403.06;5031263;28;20043;-80
2023/05/05 01:49:53;;;;;;;5.53;2.90;;;;;;;8.18;nan;101400.47;5051034;28;20521;-80
2023/05/05 01:52:21;;;;;;;4.97;2.70;;;;;;;8.18;nan;101406.59;5034671;28;20047;-80
2023/05/05 01:54:48;;;;;;;6.10;2.90;;;;;;;8.10;nan;101402.19;5034060;28;20030;-80
2023/05/05 01:57:16;;;;;;;6.47;3.43;;;;;;;8.23;nan;101403.06;5030629;28;20032;-80
2023/05/05 01:59:42;;;;;;;5.40;3.20;;;;;;;8.17;nan;101404.84;5049678;28;20033;-80
2023/05/05 02:02:11;;;;;;;6.23;2.80;;;;;;;8.23;nan;101400.44;5055946;28;20043;-80
2023/05/05 02:04:41;;;;;;;4.13;2.30;;;;;;;8.18;nan;101400.47;5058813;28;20045;-80
2023/05/05 02:07:09;;;;;;;4.47;2.83;;;;;;;8.22;nan;101401.31;5040177;28;20032;-80
2023/05/05 02:09:37;;;;;;;5.47;3.10;;;;;;;8.24;nan;101396.94;5033273;28;20055;-80
2023/05/05 02:12:05;;;;;;;4.93;2.77;;;;;;;8.24;nan;101404.81;5047543;28;20029;-80
2023/05/05 02:14:32;;;;;;;7.80;3.13;;;;;;;8.08;nan;101391.69;5057841;28;20109;-80
2023/05/05 02:17:00;;;;;;;5.97;2.67;;;;;;;8.19;nan;101391.69;5048419;28;20036;-80
2023/05/05 02:19:42;;;;;;;6.50;2.90;;;;;;;8.23;nan;101380.25;5049370;28;20040;-80
2023/05/05 02:22:09;;;;;;;5.87;2.70;;;;;;;8.36;nan;101386.47;5033235;28;20121;-80
2023/05/05 02:24:36;;;;;;;4.83;2.53;;;;;;;8.31;nan;101388.16;5035798;28;20044;-80
2023/05/05 02:27:04;;;;;;;7.00;2.50;;;;;;;8.20;nan;101390.81;5035521;28;20044;-80
2023/05/05 02:29:39;;;;;;;6.13;2.87;;;;;;;8.44;nan;101389.97;5055698;28;20052;-80
2023/05/05 02:32:09;;;;;;;5.17;2.93;;;;;;;8.23;nan;101395.19;5053850;28;20408;-80
2023/05/05 02:34:38;;;;;;;6.03;2.97;;;;;;;8.17;nan;101394.31;5043521;28;20036;-81
2023/05/05 02:37:10;;;;;;;4.90;2.50;;;;;;;8.37;nan;101389.09;5044807;28;20044;-80
2023/05/05 02:39:57;;;;;;;4.00;2.33;;;;;;;8.27;nan;101386.44;5034257;28;20504;-80
2023/05/05 02:42:28;;;;;;;7.13;2.50;;;;;;;8.22;nan;101383.78;5028379;28;20041;-80
2023/05/05 02:44:57;;;;;;;5.57;2.60;;;;;;;8.25;nan;101381.16;5042895;28;20417;-80
2023/05/05 02:47:36;;;;;;;6.93;3.03;;;;;;;8.41;nan;101390.88;5053150;28;20041;-80
2023/05/05 02:50:04;;;;;;;7.57;2.83;;;;;;;8.44;nan;101384.72;5024935;28;20043;-80
2023/05/05 02:52:32;;;;;;;4.67;2.80;;;;;;;8.31;nan;101396.06;5026198;28;20033;-80
2023/05/05 02:54:59;;;;;;;5.10;2.50;;;;;;;8.46;nan;101389.09;5045947;28;20045;-80
2023/05/05 02:57:50;;;;;;;4.73;3.37;;;;;;;8.44;nan;101392.59;5045919;28;20036;-80
2023/05/05 03:00:35;;;;;;;5.53;2.70;;;;;;;8.50;nan;101394.38;5057529;28;20646;-80
2023/05/05 03:03:08;;;;;;;4.97;2.83;;;;;;;8.43;nan;101389.09;5030490;28;20416;-80
2023/05/05 03:05:44;;;;;;;5.80;3.00;;;;;;;8.50;nan;101394.38;5052696;28;20044;-80
2023/05/05 03:08:26;;;;;;;4.83;2.77;;;;;;;8.63;nan;101401.38;5038876;28;20040;-80
2023/05/05 03:11:05;;;;;;;7.10;3.57;;;;;;;8.53;nan;101394.34;5041787;28;20039;-81
2023/05/05 03:13:34;;;;;;;6.50;3.27;;;;;;;8.54;nan;101398.75;5076620;28;20153;-82
2023/05/05 03:16:05;;;;;;;12.90;3.77;;;;;;;8.61;nan;101388.22;5047246;28;20497;-80
2023/05/05 03:18:33;;;;;;;3.27;2.40;;;;;;;8.61;nan;101384.69;5038325;28;20028;-81
2023/05/05 03:21:07;;;;;;;6.43;2.73;;;;;;;8.61;nan;101376.78;5038404;28;20516;-80
2023/05/05 03:23:35;;;;;;;4.97;2.75;;;;;;;8.55;nan;101388.19;5010131;28;20048;-84
2023/05/05 03:26:02;;;;;;;7.00;2.80;;;;;;;8.52;nan;101388.22;5033004;28;20041;-81
2023/05/05 03:28:29;;;;;;;3.43;2.70;;;;;;;8.52;nan;101387.34;5019431;28;20506;-81
2023/05/05 03:30:56;;;;;;;3.73;2.30;;;;;;;8.54;nan;101391.72;5054468;28;20043;-81
2023/05/05 03:33:23;;;;;;;6.30;3.13;;;;;;;8.58;nan;101384.72;5062597;28;20050;-81
2023/05/05 03:35:49;;;;;;;6.80;2.87;;;;;;;8.67;nan;101392.59;5039663;28;20055;-81
2023/05/05 03:38:16;;;;;;;4.80;2.50;;;;;;;8.47;nan;101389.97;5031926;28;20041;-81
2023/05/05 03:40:46;;;;;;;6.63;2.63;;;;;;;8.52;nan;101380.31;5052942;28;20044;-81
2023/05/05 03:43:13;;;;;;;4.23;2.90;;;;;;;8.44;nan;101390.84;5033168;28;20041;-81
2023/05/05 03:45:39;;;;;;;4.93;2.63;;;;;;;8.56;nan;101395.22;5017940;28;20498;-81
2023/05/05 03:48:08;;;;;;;5.10;2.50;;;;;;;8.43;nan;101404.03;5031078;28;20043;-81
2023/05/05 03:50:35;;;;;;;4.77;2.30;;;;;;;8.43;nan;101396.13;5053293;28;20029;-81
2023/05/05 03:53:02;;;;;;;5.90;2.73;;;;;;;8.38;nan;101398.75;5036669;28;20033;-81
2023/05/05 03:55:29;;;;;;;4.33;2.43;;;;;;;8.32;nan;101401.31;5046951;28;20440;-81
2023/05/05 03:57:56;;;;;;;34.07;6.07;;;;;;;8.22;nan;101403.97;5024847;28;20051;-80
2023/05/05 04:00:23;;;;;;;9.90;3.20;;;;;;;8.38;nan;101395.22;5041336;28;20382;-81
2023/05/05 04:02:50;;;;;;;7.47;2.40;;;;;;;8.19;nan;101403.09;5045369;28;20404;-80
2023/05/05 04:05:18;;;;;;;3.63;2.60;;;;;;;8.21;nan;101402.22;5054308;28;20040;-80
2023/05/05 04:07:45;;;;;;;5.30;2.40;;;;;;;8.11;nan;101401.31;5035512;28;20043;-81
2023/05/05 04:10:12;;;;;;;5.70;2.47;;;;;;;8.24;nan;101405.75;5034813;28;20405;-81
2023/05/05 04:12:39;;;;;;;8.47;2.47;;;;;;;8.17;nan;101410.13;5067713;28;20482;-81
2023/05/05 04:15:06;;;;;;;9.13;2.40;;;;;;;8.24;nan;101415.34;5027529;28;20040;-80
2023/05/05 04:17:33;;;;;;;4.27;2.23;;;;;;;8.31;nan;101409.22;5044614;28;20037;-81
2023/05/05 04:20:00;;;;;;;5.40;2.80;;;;;;;8.27;nan;101410.13;5044057;28;20043;-80
2023/05/05 04:22:27;;;;;;;4.80;2.50;;;;;;;8.44;nan;101409.28;5045384;28;20037;-81
2023/05/05 04:24:54;;;;;;;6.10;2.73;;;;;;;8.37;nan;101412.78;5043676;28;20036;-81
2023/05/05 04:27:21;;;;;;;6.43;2.90;;;;;;;8.53;nan;101407.53;5045552;28;20040;-80
2023/05/05 04:29:48;;;;;;;5.63;2.30;;;;;;;8.50;nan;101397.00;5041182;28;20055;-80
2023/05/05 04:32:15;;;;;;;4.27;2.90;;;;;;;8.55;nan;101403.13;5050921;28;20041;-81
2023/05/05 04:34:42;;;;;;;3.33;2.20;;;;;;;8.60;nan;101402.25;5050957;28;20436;-80
2023/05/05 04:37:09;;;;;;;7.57;2.67;;;;;;;8.64;nan;101403.13;5020136;28;20044;-80
2023/05/05 04:39:36;;;;;;;10.87;2.77;;;;;;;8.67;nan;101404.00;5070700;28;20534;-81
2023/05/05 04:42:03;;;;;;;4.93;2.57;;;;;;;8.63;nan;101406.63;5016866;28;20033;-81
2023/05/05 04:44:30;;;;;;;4.30;2.30;;;;;;;8.73;nan;101396.09;5049409;28;20040;-80
2023/05/05 04:46:59;;;;;;;5.00;2.33;;;;;;;8.58;nan;101404.03;5051622;28;20046;-80
2023/05/05 04:49:28;;;;;;;3.50;2.53;;;;;;;8.72;nan;101412.78;5033377;28;20054;-80
2023/05/05 04:51:55;;;;;;;7.13;2.57;;;;;;;8.69;nan;101412.78;5033678;28;20047;-81
2023/05/05 04:54:22;;;;;;;4.80;3.20;;;;;;;8.74;nan;101415.41;5042563;28;20043;-80
2023/05/05 04:56:49;;;;;;;5.90;2.87;;;;;;;8.78;nan;101421.56;5049154;28;20040;-80
2023/05/05 04:59:16;;;;;;;4.37;2.60;;;;;;;8.73;nan;101424.19;5058986;28;20042;-80
2023/05/05 05:01:43;;;;;;;6.03;2.13;;;;;;;8.72;nan;101425.06;5031198;28;20047;-80
2023/05/05 05:04:11;;;;;;;4.40;2.20;;;;;;;8.74;nan;101423.31;5062924;28;20045;-80
2023/05/05 05:06:38;;;;;;;5.40;2.83;;;;;;;8.83;nan;101428.59;5047422;28;20089;-81
2023/05/05 05:09:05;;;;;;;3.53;2.20;;;;;;;8.87;nan;101434.72;5051313;28;20041;-80
2023/05/05 05:11:32;;;;;;;4.57;2.27;;;;;;;8.81;nan;101430.31;5049177;28;20029;-80
2023/05/05 05:13:59;;;;;;;4.97;2.73;;;;;;;8.84;nan;101432.97;5024550;28;20643;-80
2023/05/05 05:16:26;;;;;;;5.33;2.80;;;;;;;8.80;nan;101433.84;5035094;28;20047;-79
2023/05/05 05:18:53;;;;;;;5.33;2.90;;;;;;;8.85;nan;101433.84;5054675;28;20040;-81
2023/05/05 05:21:20;;;;;;;7.20;2.70;;;;;;;8.92;nan;101441.75;5050814;28;20046;-80
2023/05/05 05:23:47;;;;;;;5.50;2.47;;;;;;;8.94;nan;101437.34;5027134;28;20078;-80
2023/05/05 05:26:15;;;;;;;4.33;2.80;;;;;;;9.11;nan;101436.44;5038420;28;20041;-80
2023/05/05 05:28:42;;;;;;;4.47;2.67;;;;;;;9.23;nan;101436.41;5055781;28;20082;-80
2023/05/05 05:31:09;;;;;;;5.37;2.60;;;;;;;9.35;nan;101441.66;5023005;28;20041;-81
2023/05/05 05:33:35;;;;;;;5.43;2.87;;;;;;;9.42;nan;101442.53;5033843;28;20041;-80
2023/05/05 05:36:03;;;;;;;5.30;3.00;;;;;;;9.59;nan;101440.72;5056432;28;20044;-81
2023/05/05 05:38:29;;;;;;;4.00;2.10;;;;;;;9.74;nan;101434.47;5075334;28;20040;-80
2023/05/05 05:40:56;;;;;;;4.07;2.10;;;;;;;9.83;nan;101439.69;5034749;28;20046;-79
2023/05/05 05:43:23;;;;;;;4.40;2.70;;;;;;;9.97;nan;101437.88;5047734;28;20036;-81
2023/05/05 05:45:50;;;;;;;6.70;2.63;;;;;;;9.98;nan;101442.25;5027113;28;20037;-80
2023/05/05 05:48:17;;;;;;;5.33;2.90;;;;;;;10.30;nan;101444.75;5040652;28;20036;-81
2023/05/05 05:50:44;;;;;;;8.23;4.07;;;;;;;10.73;nan;101436.47;5055142;28;21372;-80
2023/05/05 05:53:11;;;;;;;4.30;2.70;;;;;;;11.43;nan;101441.03;5041587;28;20040;-80
2023/05/05 05:55:38;;;;;;;6.60;2.60;;;;;;;11.17;nan;101436.03;5043029;28;20040;-79
2023/05/05 05:58:05;;;;;;;8.00;2.97;;;;;;;11.61;nan;101433.81;5044906;28;20400;-81
2023/05/05 06:00:32;;;;;;;3.80;2.28;;;;;;;11.73;nan;101438.94;5043165;28;20049;-80
2023/05/05 06:02:59;;;;;;;5.65;2.80;;;;;;;12.55;nan;101429.81;5029831;28;20477;-80
2023/05/05 06:05:26;;;;;;;4.28;2.65;;;;;;;13.19;nan;101425.13;5028569;28;20475;-80
2023/05/05 06:07:53;;;;;;;6.18;2.92;;;;;;;13.12;nan;101427.06;5042818;28;20036;-80
2023/05/05 06:10:20;;;;;;;6.43;2.67;;;;;;;13.43;nan;101437.09;5034225;28;20058;-81
2023/05/05 06:12:51;;;;;;;4.13;2.75;;;;;;;13.41;nan;101436.25;5044129;28;20544;-80
2023/05/05 06:15:18;;;;;;;4.25;2.63;;;;;;;13.77;nan;101447.91;5039627;28;20041;-82
2023/05/05 06:17:44;;;;;;;7.00;2.65;;;;;;;13.87;nan;101443.25;5026758;28;20040;-80
2023/05/05 06:20:12;;;;;;;3.83;2.30;;;;;;;13.89;nan;101442.34;5064163;28;20040;-80
2023/05/05 06:22:39;;;;;;;4.63;2.85;;;;;;;13.72;nan;101440.06;5026919;28;20512;-80
2023/05/05 06:25:07;;;;;;;6.30;3.38;;;;;;;13.21;nan;101445.50;5051124;28;20036;-80
2023/05/05 06:27:34;;;;;;;4.60;2.72;;;;;;;12.87;nan;101445.19;5059264;28;20033;-81
2023/05/05 06:30:01;;;;;;;6.85;2.88;;;;;;;12.56;nan;101449.25;5020627;28;20047;-79
2023/05/05 06:32:28;;;;;;;5.47;2.80;;;;;;;12.36;nan;101461.06;5062399;28;20037;-82
2023/05/05 06:34:57;;;;;;;6.25;2.78;;;;;;;12.39;nan;101450.38;5069033;28;20040;-80
2023/05/05 06:37:24;;;;;;;6.05;3.13;;;;;;;12.27;nan;101458.50;5034920;28;20520;-80
2023/05/05 06:39:50;;;;;;;5.57;2.90;;;;;;;12.73;nan;101460.47;5049408;28;20044;-81
2023/05/05 06:42:17;;;;;;;4.63;2.60;;;;;;;12.52;nan;101439.59;5017441;28;20033;-80
2023/05/05 06:44:44;;;;;;;6.55;3.00;;;;;;;12.90;nan;101429.22;5049024;28;20051;-81
2023/05/05 06:47:11;;;;;;;23.77;5.07;;;;;;;13.10;nan;101438.59;5048484;28;20056;-81
2023/05/05 06:49:38;;;;;;;7.05;3.85;;;;;;;12.71;nan;101433.09;5028452;28;20029;-79
2023/05/05 06:52:07;;;;;;;4.03;2.85;;;;;;;12.79;nan;101441.81;5044475;28;20043;-80
2023/05/05 06:54:33;;;;;;;4.35;2.70;;;;;;;13.36;nan;101444.31;5050811;28;20525;-80
2023/05/05 06:57:00;;;;;;;4.97;2.83;;;;;;;13.61;nan;101459.75;5034432;28;20055;-81
2023/05/05 06:59:27;;;;;;;6.10;2.72;;;;;;;13.49;nan;101439.66;5038299;28;20573;-80
2023/05/05 07:01:54;;;;;;;6.18;2.60;;;;;;;13.66;nan;101444.59;5051675;28;20071;-80
2023/05/05 07:04:22;;;;;;;4.97;3.20;;;;;;;13.73;nan;101439.13;5037167;28;20037;-80
2023/05/05 07:06:49;;;;;;;5.50;3.00;;;;;;;13.66;nan;101431.34;5034111;28;20044;-80
2023/05/05 07:09:16;;;;;;;5.13;2.80;;;;;;;14.31;nan;101442.28;5034230;28;20052;-80
2023/05/05 07:11:43;;;;;;;5.57;2.53;;;;;;;14.84;nan;101442.78;5022996;28;20493;-81
2023/05/05 07:14:10;;;;;;;8.18;3.60;;;;;;;15.12;nan;101437.59;5042329;28;20032;-80
2023/05/05 07:16:37;;;;;;;5.88;3.17;;;;;;;15.48;nan;101441.06;5044228;28;20037;-80
2023/05/05 07:19:05;;;;;;;5.80;2.90;;;;;;;15.45;nan;101441.13;5043094;28;20055;-80
2023/05/05 07:21:35;;;;;;;5.20;3.15;;;;;;;15.47;nan;101432.19;5048296;28;20036;-80
2023/05/05 07:24:02;;;;;;;6.63;2.97;;;;;;;14.82;nan;101449.94;5071012;28;20039;-80
2023/05/05 07:26:29;;;;;;;9.05;3.47;;;;;;;15.15;nan;101433.09;5049598;28;20040;-82
2023/05/05 07:28:57;;;;;;;4.82;2.40;;;;;;;15.10;nan;101436.78;5052464;28;20062;-80
2023/05/05 07:31:25;;;;;;;4.72;2.80;;;;;;;14.81;nan;101427.78;5049123;28;20040;-80
2023/05/05 07:33:52;;;;;;;4.60;2.65;;;;;;;14.90;nan;101424.00;5035172;28;20047;-80
2023/05/05 07:36:19;;;;;;;4.88;2.60;;;;;;;14.83;nan;101430.41;5029119;28;20047;-80
2023/05/05 07:38:46;;;;;;;5.45;2.70;;;;;;;14.74;nan;101425.31;5038411;28;20047;-80
2023/05/05 07:41:12;;;;;;;4.85;3.10;;;;;;;14.72;nan;101436.00;5053424;28;20507;-80
2023/05/05 07:43:40;;;;;;;5.38;2.33;;;;;;;14.80;nan;101425.16;5033324;28;20041;-81
2023/05/05 07:46:10;;;;;;;4.15;2.80;;;;;;;14.82;nan;101433.97;5036539;28;20037;-80
2023/05/05 07:48:39;;;;;;;4.72;2.67;;;;;;;15.12;nan;101433.16;5051854;28;20051;-80
2023/05/05 07:51:07;;;;;;;5.82;3.28;;;;;;;15.17;nan;101446.34;5023241;28;20429;-81
2023/05/05 07:53:34;;;;;;;7.68;2.97;;;;;;;15.18;nan;101445.44;5057299;28;20040;-80
2023/05/05 07:56:01;;;;;;;4.82;2.55;;;;;;;15.35;nan;101455.63;5039782;28;20437;-80
2023/05/05 07:58:28;;;;;;;5.32;3.00;;;;;;;15.33;nan;101452.13;5033518;28;20083;-81
2023/05/05 08:00:55;;;;;;;6.68;2.67;;;;;;;15.42;nan;101462.53;5026441;28;20037;-80
2023/05/05 08:03:23;;;;;;;4.05;2.92;;;;;;;15.82;nan;101462.31;5058255;28;20043;-81
2023/05/05 08:05:53;;;;;;;4.35;2.55;;;;;;;15.93;nan;101464.66;5028963;28;20045;-81
2023/05/05 08:08:23;;;;;;;4.47;2.95;;;;;;;16.01;nan;101457.28;5038549;28;20040;-79
2023/05/05 08:10:51;;;;;;;22.45;4.55;;;;;;;16.48;nan;101454.91;5048221;28;20043;-81
2023/05/05 08:13:18;;;;;;;5.13;2.83;;;;;;;16.58;nan;101451.06;5053099;28;20497;-81
2023/05/05 08:15:45;;;;;;;4.82;2.50;;;;;;;16.67;nan;101445.41;5044286;28;20054;-79
2023/05/05 08:18:13;;;;;;;5.63;3.22;;;;;;;16.54;nan;101462.72;5055092;28;20043;-80
2023/05/05 08:20:40;;;;;;;6.97;2.90;;;;;;;16.83;nan;101457.34;5052028;28;20043;-80
2023/05/05 08:23:07;;;;;;;5.15;2.63;;;;;;;16.56;nan;101452.88;5064868;28;20040;-81
2023/05/05 08:25:33;;;;;;;5.13;2.97;;;;;;;16.78;nan;101458.41;5056373;28;20047;-80
2023/05/05 08:28:00;;;;;;;5.38;3.50;;;;;;;16.79;nan;101447.69;5052837;28;20033;-80
2023/05/05 08:30:27;;;;;;;4.05;2.67;;;;;;;16.74;nan;101451.47;5035318;28;20037;-80
2023/05/05 08:32:55;;;;;;;5.78;3.17;;;;;;;16.20;nan;101457.59;5045013;28;20404;-81
2023/05/05 08:35:22;;;;;;;4.53;2.85;;;;;;;16.25;nan;101450.34;5053157;28;20405;-80
2023/05/05 08:37:50;;;;;;;5.38;2.83;;;;;;;16.31;nan;101451.03;5051497;28;20490;-80
2023/05/05 08:40:19;;;;;;;4.05;2.60;;;;;;;16.35;nan;101433.13;5050225;28;20052;-81
2023/05/05 08:42:46;;;;;;;4.70;2.75;;;;;;;16.07;nan;101419.81;5053119;28;20044;-81
2023/05/05 08:45:13;;;;;;;6.22;3.42;;;;;;;15.65;nan;101419.31;5048434;28;20041;-81
2023/05/05 08:47:42;;;;;;;6.50;3.10;;;;;;;15.85;nan;101416.03;5043798;28;20401;-81
2023/05/05 08:50:10;;;;;;;5.05;2.90;;;;;;;16.02;nan;101419.06;5057759;28;20040;-81
2023/05/05 08:52:39;;;;;;;5.32;3.08;;;;;;;15.91;nan;101415.84;5030377;28;20388;-81
2023/05/05 08:55:25;;;;;;;4.45;2.50;;;;;;;15.61;nan;101421.16;5053345;28;20045;-81
2023/05/05 08:57:56;;;;;;;7.30;3.38;;;;;;;16.08;nan;101421.53;5025653;28;20033;-81
2023/05/05 09:00:25;;;;;;;8.05;3.35;;;;;;;16.42;nan;101420.47;5030904;28;20045;-81
2023/05/05 09:02:57;;;;;;;3.58;2.53;;;;;;;16.47;nan;101421.16;5030412;28;20048;-81
2023/05/05 09:05:25;;;;;;;4.57;2.88;;;;;;;16.85;nan;101417.25;5014055;28;20037;-81
2023/05/05 09:07:52;;;;;;;6.40;3.10;;;;;;;17.35;nan;101420.81;5030480;28;20029;-81
2023/05/05 09:10:19;;;;;;;4.82;2.53;;;;;;;17.49;nan;101424.75;5032150;28;20055;-84
2023/05/05 09:12:48;;;;;;;6.13;2.85;;;;;;;17.32;nan;101428.94;5051231;28;20046;-83
2023/05/05 09:15:15;;;;;;;5.95;3.00;;;;;;;17.02;nan;101432.69;5068191;28;20041;-83
2023/05/05 09:17:42;;;;;;;58.13;9.77;;;;;;;17.13;nan;101436.72;5052234;28;20070;-83
2023/05/05 09:20:11;;;;;;;5.80;3.38;;;;;;;17.00;nan;101437.22;5042915;28;20051;-83
2023/05/05 09:22:43;;;;;;;7.05;3.33;;;;;;;17.21;nan;101439.13;5043412;28;20043;-85
2023/05/05 09:25:12;;;;;;;5.88;2.80;;;;;;;16.83;nan;101435.13;5035717;28;20659;-84
2023/05/05 09:27:44;;;;;;;5.72;2.47;;;;;;;17.28;nan;101443.31;5049730;28;20048;-84
2023/05/05 09:30:25;;;;;;;8.55;3.45;;;;;;;17.21;nan;101452.47;5050691;28;20044;-83
2023/05/05 09:32:53;;;;;;;3.92;2.50;;;;;;;17.53;nan;101443.31;5052296;28;20405;-84
2023/05/05 09:35:21;;;;;;;5.30;3.00;;;;;;;17.90;nan;101442.81;5033623;28;20700;-85
2023/05/05 09:37:48;;;;;;;5.13;3.20;;;;;;;17.74;nan;101447.03;5037901;28;20050;-82
2023/05/05 09:40:17;;;;;;;5.32;3.20;;;;;;;17.35;nan;101455.53;5064347;28;20766;-83
2023/05/05 09:42:44;;;;;;;4.70;2.95;;;;;;;17.66;nan;101441.94;5045981;28;20037;-84
2023/05/05 09:45:17;;;;;;;5.03;3.00;;;;;;;17.50;nan;101447.91;5053252;28;20036;-82
2023/05/05 09:47:45;;;;;;;3.97;2.78;;;;;;;17.47;nan;101443.53;5048385;28;20045;-82
2023/05/05 09:50:17;;;;;;;19.33;4.63;;;;;;;17.87;nan;101436.72;5052621;28;20036;-82
2023/05/05 09:52:54;;;;;;;26.58;5.70;;;;;;;17.80;nan;101448.56;5043458;28;20033;-82
2023/05/05 09:55:22;;;;;;;6.07;2.88;;;;;;;18.01;nan;101439.75;5039711;28;20051;-82
2023/05/05 09:57:49;;;;;;;5.82;3.17;;;;;;;17.89;nan;101437.53;5034398;28;20039;-83
2023/05/05 10:00:17;;;;;;;3.10;2.80;;;;;;;17.92;nan;101435.63;5062932;28;20041;-83
2023/05/05 10:02:44;;;;;;;5.22;3.47;;;;;;;17.74;nan;101447.03;5058981;28;20036;-84
2023/05/05 10:05:13;;;;;;;6.00;2.95;;;;;;;17.64;nan;101441.09;5049517;28;20045;-81
2023/05/05 10:07:42;;;;;;;6.13;3.45;;;;;;;17.65;nan;101439.28;5061586;28;20033;-84
2023/05/05 10:10:12;;;;;;;6.20;2.92;;;;;;;17.61;nan;101440.34;5019352;28;20051;-85
2023/05/05 10:12:39;;;;;;;5.05;3.28;;;;;;;17.76;nan;101430.94;5037566;28;20043;-82
2023/05/05 10:15:09;;;;;;;7.13;3.28;;;;;;;17.77;nan;101430.88;5042621;28;20517;-84
2023/05/05 10:17:46;;;;;;;5.55;2.90;;;;;;;18.23;nan;101431.72;5049634;28;20041;-84
2023/05/05 10:20:32;;;;;;;6.55;2.80;;;;;;;17.95;nan;101435.50;5064477;28;20503;-82
2023/05/05 10:23:01;;;;;;;4.70;2.95;;;;;;;17.63;nan;101434.00;5057481;28;20606;-83
2023/05/05 10:25:30;;;;;;;5.35;2.97;;;;;;;17.57;nan;101442.28;5035596;28;20036;-85
2023/05/05 10:27:59;;;;;;;4.35;3.15;;;;;;;17.64;nan;101430.41;5058403;28;20048;-82
2023/05/05 10:30:28;;;;;;;3.83;3.10;;;;;;;18.33;nan;101440.25;5063037;28;20044;-83
2023/05/05 10:33:18;;;;;;;5.15;3.58;;;;;;;18.26;nan;101439.66;5044256;28;20527;-84
2023/05/05 10:36:00;;;;;;;5.57;2.80;;;;;;;18.52;nan;101426.09;5021010;28;20040;-84
2023/05/05 10:38:29;;;;;;;5.53;3.15;;;;;;;18.33;nan;101418.84;5053841;28;20040;-83
2023/05/05 10:40:58;;;;;;;7.97;3.33;;;;;;;17.46;nan;101417.75;5041438;28;20040;-83
2023/05/05 10:43:27;;;;;;;36.10;7.72;;;;;;;16.64;nan;101426.81;5011847;28;20041;-83
2023/05/05 10:45:54;;;;;;;9.82;4.60;;;;;;;16.96;nan;101408.88;5050239;28;20040;-82
2023/05/05 10:48:38;;;;;;;6.20;3.15;;;;;;;17.20;nan;101413.34;5053250;28;20041;-86
2023/05/05 10:51:26;;;;;;;5.88;4.03;;;;;;;16.54;nan;101422.72;5047355;28;20044;-82
2023/05/05 10:54:14;;;;;;;3.80;2.83;;;;;;;17.01;nan;101425.63;5038726;28;20037;-83
2023/05/05 10:56:41;;;;;;;4.28;3.47;;;;;;;16.78;nan;101427.28;5054196;28;20045;-84
2023/05/05 10:59:36;;;;;;;5.95;3.22;;;;;;;17.13;nan;101427.84;5034770;28;20040;-84
2023/05/05 11:02:24;;;;;;;8.00;3.45;;;;;;;17.38;nan;101419.81;5031796;28;20055;-83
2023/05/05 11:05:13;;;;;;;24.88;5.80;;;;;;;17.68;nan;101409.81;5034782;28;20037;-85
2023/05/05 11:07:41;;;;;;;6.60;3.92;;;;;;;16.84;nan;101404.84;5049603;28;20037;-85
2023/05/05 11:10:10;;;;;;;8.43;3.65;;;;;;;17.25;nan;101405.19;5055104;28;20028;-84
2023/05/05 11:12:52;;;;;;;5.40;3.08;;;;;;;16.98;nan;101409.69;5042393;28;20051;-79
2023/05/05 11:15:22;;;;;;;7.13;4.00;;;;;;;17.14;nan;101403.75;5045773;28;20045;-84
2023/05/05 11:17:49;;;;;;;4.38;3.28;;;;;;;17.20;nan;101407.13;5054355;28;20066;-81
2023/05/05 11:20:16;;;;;;;4.93;3.30;;;;;;;17.40;nan;101392.16;5049150;28;20043;-85
2023/05/05 11:23:03;;;;;;;4.68;3.88;;;;;;;17.79;nan;101380.88;5054288;28;20045;-86
2023/05/05 11:25:33;;;;;;;4.97;3.42;;;;;;;18.22;nan;101380.03;5050582;28;20037;-84
2023/05/05 11:28:11;;;;;;;4.70;2.92;;;;;;;17.95;nan;101384.72;5072495;28;20047;-85
2023/05/05 11:30:56;;;;;;;4.85;3.65;;;;;;;18.05;nan;101395.91;5069118;28;20051;-84
2023/05/05 11:33:29;;;;;;;4.75;2.97;;;;;;;17.76;nan;101396.19;5062063;28;20635;-84
2023/05/05 11:35:57;;;;;;;5.07;3.60;;;;;;;17.66;nan;101383.16;5021323;28;20508;-84
2023/05/05 11:38:37;;;;;;;5.38;3.30;;;;;;;16.97;nan;101387.47;5027557;28;20057;-84
2023/05/05 11:41:25;;;;;;;4.43;3.35;;;;;;;17.86;nan;101381.53;5032293;28;20046;-81
2023/05/05 11:44:09;;;;;;;5.45;3.47;;;;;;;18.32;nan;101375.19;5017656;28;20041;-84
2023/05/05 11:46:38;;;;;;;5.07;2.88;;;;;;;18.11;nan;101376.06;5042948;28;20036;-84
2023/05/05 11:49:06;;;;;;;5.05;2.83;;;;;;;18.06;nan;101378.91;5048932;28;20053;-84
2023/05/05 11:51:33;;;;;;;5.28;3.35;;;;;;;17.95;nan;101367.78;5053929;28;20045;-84
2023/05/05 11:54:00;;;;;;;7.28;3.10;;;;;;;18.23;nan;101367.53;5047248;28;20037;-83
2023/05/05 11:56:27;;;;;;;96.00;13.00;;;;;;;18.14;nan;101365.25;5042141;28;20037;-85
2023/05/05 11:59:08;;;;;;;12.63;4.50;;;;;;;17.43;nan;101359.09;5045199;28;20660;-84